História METAR Noord Nederlandse Zweefvliegclub (NL-0036)

23 de maio de 2022

Tempo Código Clima Temp. Visão Nuvens Vento METAR/SPECI
09:20
V
16 °C 10 km+ 13.000 ft 100°   100° 6 kt METAR ETND 230720Z 10006KT 9999 SCT100 BKN130 16/10 Q1006 BLU
08:20
V
15 °C 10 km+ 13.000 ft 110°   110° 5 kt METAR ETND 230620Z 11005KT 9999 FEW100 BKN130 BKN230 15/09 Q1006 BLU
07:20
V
14 °C 10 km+ 10.000 ft 110°   110° 6 kt METAR ETND 230520Z 11006KT 9999 FEW080 BKN100 BKN230 14/08 Q1007 BLU FCST CANCEL
06:20
V
12 °C 10 km+ 10.000 ft 100°   100° 4 kt METAR ETND 230420Z 10004KT 9999 FEW080 BKN100 BKN230 12/08 Q1008 BLU BLU
Dados mais antigos

Baixe nosso aplicativo

Fácil acesso a todas as condições meteorológicas da aviação no seu celular e no seu tablet.
Com muitos recursos não disponíveis no site, como suporte offline e uma lista pessoal de aeroportos.

Nós e terceiros acompanhamos seu comportamento na internet em nosso site com cookies. Se você continuar, nós assumimos que você concorda com nossa política de cookies. Saiba mais